Terminal Aerodrome Forecast
Issued by NWS

Home | Current Version | Previous Version | Text Only | Print | Product List | Glossary Off
Versions: 1 2 3 4 5 6 7 8 9 10 11 12 13 14 15

000
FTUS43 KICT 181124
TAFCNU
TAF
KCNU 181124Z 1812/1912 13005KT P6SM VCTS OVC040CB
      TEMPO 1812/1815 VRB15G25KT 2SM +TSRA BKN025CB OVC040
     FM181700 17006KT P6SM BKN040
     FM190700 15005KT P6SM VCTS BKN050CB=

USA.gov is the U.S. government's official web portal to all federal, state and local government web resources and services.